createdAt,value
2023-03-29T00:00:50.957Z,33.46
2023-03-29T00:01:50.958Z,33.45
2023-03-29T00:02:51.024Z,33.39
2023-03-29T00:03:51.064Z,33.42
2023-03-29T00:04:51.730Z,33.35
2023-03-29T00:05:51.033Z,33.35
2023-03-29T00:06:50.989Z,33.34
2023-03-29T00:07:50.996Z,33.33
2023-03-29T00:08:51.014Z,33.33
2023-03-29T00:09:51.052Z,33.33
2023-03-29T00:10:51.005Z,33.35
2023-03-29T00:11:51.019Z,33.34
2023-03-29T00:12:51.016Z,33.34
2023-03-29T00:13:51.024Z,33.31
2023-03-29T00:14:51.047Z,33.31
2023-03-29T00:15:51.038Z,33.37
2023-03-29T00:16:51.169Z,33.39
2023-03-29T00:17:51.088Z,33.39
2023-03-29T00:18:51.135Z,33.35
2023-03-29T00:19:51.072Z,33.31
2023-03-29T00:20:51.078Z,33.38
2023-03-29T00:21:51.096Z,33.29
2023-03-29T00:22:51.092Z,33.34
2023-03-29T00:23:51.153Z,33.25
2023-03-29T00:24:51.113Z,33.23
2023-03-29T00:25:51.157Z,33.19
2023-03-29T00:26:51.158Z,33.18
2023-03-29T00:27:51.173Z,33.08
2023-03-29T00:28:51.166Z,33.09
2023-03-29T00:29:51.162Z,33.09
2023-03-29T00:30:51.166Z,33.12
2023-03-29T00:31:51.341Z,33.15
2023-03-29T00:32:51.393Z,33.16
2023-03-29T00:33:51.201Z,33.12
2023-03-29T00:34:51.223Z,33.11
2023-03-29T00:35:51.267Z,33.13
2023-03-29T00:36:51.240Z,33.13
2023-03-29T00:37:51.240Z,33.13
2023-03-29T00:38:51.249Z,33.13
2023-03-29T00:39:51.263Z,33.12
2023-03-29T00:40:51.287Z,33.10
2023-03-29T00:41:51.311Z,33.11
2023-03-29T00:42:51.292Z,33.09
2023-03-29T00:43:51.320Z,33.13
2023-03-29T00:44:51.315Z,33.14
2023-03-29T00:45:51.402Z,33.16
2023-03-29T00:46:51.504Z,33.11
2023-03-29T00:47:51.452Z,33.10
2023-03-29T00:48:51.371Z,33.12
2023-03-29T00:49:51.426Z,33.13
2023-03-29T00:50:51.397Z,33.11
2023-03-29T00:51:51.410Z,33.16
2023-03-29T00:52:51.418Z,33.09
2023-03-29T00:53:51.424Z,33.14
2023-03-29T00:54:51.560Z,33.10
2023-03-29T00:55:51.457Z,33.16
2023-03-29T00:56:51.539Z,33.10
2023-03-29T00:57:52.298Z,33.08
2023-03-29T00:58:51.488Z,33.17
2023-03-29T00:59:51.505Z,33.10
2023-03-29T01:00:51.498Z,33.14
2023-03-29T01:01:51.583Z,33.13
2023-03-29T01:02:51.654Z,33.15
2023-03-29T01:03:51.596Z,33.15
2023-03-29T01:04:51.556Z,33.17
2023-03-29T01:05:51.548Z,33.19
2023-03-29T01:06:51.587Z,33.11
2023-03-29T01:07:51.575Z,33.08
2023-03-29T01:08:51.589Z,33.15
2023-03-29T01:09:51.590Z,33.11
2023-03-29T01:10:51.612Z,33.14
2023-03-29T01:11:51.626Z,33.11
2023-03-29T01:12:51.628Z,33.18
2023-03-29T01:13:51.661Z,33.15
2023-03-29T01:14:51.647Z,33.18
2023-03-29T01:15:51.671Z,33.15
2023-03-29T01:16:52.418Z,33.14
2023-03-29T01:17:51.712Z,33.14
2023-03-29T01:18:51.702Z,33.18
2023-03-29T01:19:52.264Z,33.17
2023-03-29T01:20:51.718Z,33.08
2023-03-29T01:21:51.758Z,33.13
2023-03-29T01:22:52.267Z,33.13
2023-03-29T01:23:51.766Z,33.10
2023-03-29T01:24:51.780Z,33.11
2023-03-29T01:25:51.792Z,33.14
2023-03-29T01:26:51.818Z,33.10
2023-03-29T01:27:51.881Z,33.10
2023-03-29T01:28:51.823Z,33.08
2023-03-29T01:29:51.841Z,33.04
2023-03-29T01:30:51.849Z,33.08
2023-03-29T01:31:51.906Z,33.10
2023-03-29T01:32:51.931Z,33.10
2023-03-29T01:33:51.893Z,33.06
2023-03-29T01:34:51.891Z,33.07
2023-03-29T01:35:51.935Z,33.03
2023-03-29T01:36:51.918Z,33.02
2023-03-29T01:37:51.934Z,33.04
2023-03-29T01:38:51.950Z,33.04
2023-03-29T01:39:51.969Z,33.04
2023-03-29T01:40:51.975Z,33.07
2023-03-29T01:41:51.990Z,32.98
2023-03-29T01:42:52.006Z,32.97
2023-03-29T01:43:52.027Z,33.00
2023-03-29T01:44:52.029Z,32.99
2023-03-29T01:45:52.070Z,33.00
2023-03-29T01:46:52.059Z,33.00
2023-03-29T01:47:52.161Z,32.97
2023-03-29T01:48:52.103Z,32.92
2023-03-29T01:49:52.099Z,33.00
2023-03-29T01:50:52.109Z,32.93
2023-03-29T01:51:52.778Z,32.96
2023-03-29T01:52:52.145Z,32.96
2023-03-29T01:53:52.784Z,32.97
2023-03-29T01:54:52.167Z,32.96
2023-03-29T01:55:52.188Z,32.91
2023-03-29T01:56:52.346Z,32.91
2023-03-29T01:57:52.229Z,32.89
2023-03-29T01:58:52.244Z,32.93
2023-03-29T01:59:52.259Z,32.88
2023-03-29T02:00:52.288Z,32.88
2023-03-29T02:01:52.435Z,32.83
2023-03-29T02:02:52.412Z,32.80
2023-03-29T02:03:52.372Z,32.80
2023-03-29T02:04:52.357Z,32.77
2023-03-29T02:05:52.379Z,32.79
2023-03-29T02:06:53.349Z,32.80
2023-03-29T02:07:52.415Z,32.74
2023-03-29T02:08:52.458Z,32.80
2023-03-29T02:09:52.494Z,32.77
2023-03-29T02:10:52.469Z,32.73
2023-03-29T02:11:52.576Z,32.83
2023-03-29T02:12:52.527Z,32.77
2023-03-29T02:13:52.604Z,32.77
2023-03-29T02:14:52.555Z,32.73
2023-03-29T02:15:52.622Z,32.66
2023-03-29T02:16:52.602Z,32.71
2023-03-29T02:17:52.726Z,32.66
2023-03-29T02:18:52.625Z,32.74
2023-03-29T02:19:52.647Z,32.72
2023-03-29T02:20:52.650Z,32.68
2023-03-29T02:21:52.673Z,32.70
2023-03-29T02:22:52.693Z,32.68
2023-03-29T02:23:52.705Z,32.67
2023-03-29T02:24:52.719Z,32.69
2023-03-29T02:25:52.733Z,32.66
2023-03-29T02:26:53.293Z,32.69
2023-03-29T02:27:52.778Z,32.69
2023-03-29T02:28:52.794Z,32.70
2023-03-29T02:29:53.789Z,32.70
2023-03-29T02:30:52.848Z,32.69
2023-03-29T02:31:52.852Z,32.67
2023-03-29T02:32:52.871Z,32.67
2023-03-29T02:33:52.882Z,32.69
2023-03-29T02:34:52.893Z,32.65
2023-03-29T02:35:52.950Z,32.65
2023-03-29T02:36:52.944Z,32.67
2023-03-29T02:37:53.785Z,32.69
2023-03-29T02:38:52.981Z,32.70
2023-03-29T02:39:52.992Z,32.70
2023-03-29T02:40:53.005Z,32.70
2023-03-29T02:41:53.016Z,32.67
2023-03-29T02:42:53.035Z,32.60
2023-03-29T02:43:53.046Z,32.62
2023-03-29T02:44:53.061Z,32.58
2023-03-29T02:45:53.065Z,32.57
2023-03-29T02:46:53.126Z,32.58
2023-03-29T02:47:53.191Z,32.55
2023-03-29T02:48:53.135Z,32.51
2023-03-29T02:49:53.210Z,32.60
2023-03-29T02:50:53.176Z,32.54
2023-03-29T02:51:53.192Z,32.54
2023-03-29T02:52:53.209Z,32.48
2023-03-29T02:53:53.243Z,32.47
2023-03-29T02:54:53.245Z,32.55
2023-03-29T02:55:53.272Z,32.52
2023-03-29T02:56:53.353Z,32.51
2023-03-29T02:57:53.310Z,32.55
2023-03-29T02:58:53.347Z,32.53
2023-03-29T02:59:53.341Z,32.57
2023-03-29T03:00:53.370Z,32.51
2023-03-29T03:01:53.449Z,32.53
2023-03-29T03:02:53.471Z,32.51
2023-03-29T03:03:53.578Z,32.50
2023-03-29T03:04:53.457Z,32.53
2023-03-29T03:05:53.481Z,32.49
2023-03-29T03:06:53.519Z,32.46
2023-03-29T03:07:53.534Z,32.52
2023-03-29T03:08:53.564Z,32.51
2023-03-29T03:09:53.596Z,32.53
2023-03-29T03:10:53.602Z,32.47
2023-03-29T03:11:53.627Z,32.48
2023-03-29T03:12:53.659Z,32.56
2023-03-29T03:13:53.673Z,32.51
2023-03-29T03:14:54.298Z,32.52
2023-03-29T03:15:53.738Z,32.55
2023-03-29T03:16:53.733Z,32.49
2023-03-29T03:17:53.838Z,32.52
2023-03-29T03:18:53.780Z,32.44
2023-03-29T03:19:53.793Z,32.49
2023-03-29T03:20:53.802Z,32.51
2023-03-29T03:21:53.832Z,32.48
2023-03-29T03:22:53.853Z,32.44
2023-03-29T03:23:53.859Z,32.44
2023-03-29T03:24:53.869Z,32.42
2023-03-29T03:25:53.896Z,32.44
2023-03-29T03:26:53.927Z,32.41
2023-03-29T03:27:53.931Z,32.45
2023-03-29T03:28:53.963Z,32.46
2023-03-29T03:29:53.977Z,32.46
2023-03-29T03:30:53.992Z,32.42
2023-03-29T03:31:54.429Z,32.42
2023-03-29T03:32:54.042Z,32.40
2023-03-29T03:33:54.056Z,32.41
2023-03-29T03:34:54.076Z,32.37
2023-03-29T03:35:54.122Z,32.40
2023-03-29T03:36:54.105Z,32.44
2023-03-29T03:37:54.138Z,32.35
2023-03-29T03:38:54.156Z,32.44
2023-03-29T03:39:54.176Z,32.37
2023-03-29T03:40:54.217Z,32.37
2023-03-29T03:41:54.227Z,32.39
2023-03-29T03:42:54.239Z,32.40
2023-03-29T03:43:54.271Z,32.42
2023-03-29T03:44:54.291Z,32.38
2023-03-29T03:45:54.332Z,32.42
2023-03-29T03:46:54.316Z,32.38
2023-03-29T03:47:54.366Z,32.38
2023-03-29T03:48:54.361Z,32.35
2023-03-29T03:49:54.380Z,32.31
2023-03-29T03:50:54.414Z,32.31
2023-03-29T03:51:54.440Z,32.34
2023-03-29T03:52:54.479Z,32.42
2023-03-29T03:53:54.507Z,32.34
2023-03-29T03:54:54.531Z,32.37
2023-03-29T03:55:55.309Z,32.37
2023-03-29T03:56:54.631Z,32.35
2023-03-29T03:57:54.634Z,32.37
2023-03-29T03:58:54.656Z,32.39
2023-03-29T03:59:54.689Z,32.34
2023-03-29T04:00:54.713Z,32.37
2023-03-29T04:01:54.805Z,32.38
2023-03-29T04:02:54.806Z,32.37
2023-03-29T04:03:54.867Z,32.38
2023-03-29T04:04:54.815Z,32.33
2023-03-29T04:05:54.855Z,32.35
2023-03-29T04:06:54.878Z,32.38
2023-03-29T04:07:54.908Z,32.33
2023-03-29T04:08:54.950Z,32.35
2023-03-29T04:09:54.960Z,32.34
2023-03-29T04:10:55.004Z,32.38
2023-03-29T04:11:55.034Z,32.35
2023-03-29T04:12:55.067Z,32.33
2023-03-29T04:13:55.096Z,32.38
2023-03-29T04:14:55.131Z,32.33
2023-03-29T04:15:55.236Z,32.34
2023-03-29T04:16:55.196Z,32.35
2023-03-29T04:17:55.315Z,32.35
2023-03-29T04:18:55.258Z,32.34
2023-03-29T04:19:55.274Z,32.38
2023-03-29T04:20:55.314Z,32.33
2023-03-29T04:21:55.340Z,32.31
2023-03-29T04:22:55.821Z,32.31
2023-03-29T04:23:55.469Z,32.35
2023-03-29T04:24:55.416Z,32.33
2023-03-29T04:25:55.435Z,32.30
2023-03-29T04:26:55.462Z,32.31
2023-03-29T04:27:55.491Z,32.28
2023-03-29T04:28:55.524Z,32.23
2023-03-29T04:29:55.551Z,32.30
2023-03-29T04:30:55.595Z,32.26
2023-03-29T04:31:55.597Z,32.31
2023-03-29T04:32:56.442Z,32.24
2023-03-29T04:33:56.749Z,32.21
2023-03-29T04:34:55.665Z,32.22
2023-03-29T04:35:55.697Z,32.14
2023-03-29T04:36:55.709Z,32.11
2023-03-29T04:37:55.707Z,32.09
2023-03-29T04:38:56.333Z,32.16
2023-03-29T04:39:55.718Z,32.20
2023-03-29T04:40:55.723Z,32.19
2023-03-29T04:41:55.766Z,32.20
2023-03-29T04:42:55.761Z,32.19
2023-03-29T04:43:55.774Z,32.19
2023-03-29T04:44:55.809Z,32.17
2023-03-29T04:45:55.890Z,32.23
2023-03-29T04:46:55.795Z,32.17
2023-03-29T04:47:55.822Z,32.17
2023-03-29T04:48:55.821Z,32.15
2023-03-29T04:49:55.832Z,32.15
2023-03-29T04:50:55.850Z,32.13
2023-03-29T04:51:55.863Z,32.13
2023-03-29T04:52:55.878Z,32.09
2023-03-29T04:53:55.883Z,32.13
2023-03-29T04:54:55.903Z,32.11
2023-03-29T04:55:55.916Z,32.08
2023-03-29T04:56:56.026Z,32.14
2023-03-29T04:57:55.935Z,32.16
2023-03-29T04:58:55.945Z,32.17
2023-03-29T04:59:55.959Z,32.15
2023-03-29T05:00:55.973Z,32.15
2023-03-29T05:01:56.001Z,32.12
2023-03-29T05:02:56.081Z,32.16
2023-03-29T05:03:56.122Z,32.17
2023-03-29T05:04:56.014Z,32.16
2023-03-29T05:05:56.030Z,32.16
2023-03-29T05:06:56.039Z,32.15
2023-03-29T05:07:56.086Z,32.19
2023-03-29T05:08:56.077Z,32.14
2023-03-29T05:09:56.084Z,32.17
2023-03-29T05:10:56.345Z,32.13
2023-03-29T05:11:56.113Z,32.17
2023-03-29T05:12:56.155Z,32.19
2023-03-29T05:13:56.152Z,32.12
2023-03-29T05:14:56.171Z,32.19
2023-03-29T05:15:56.172Z,32.09
2023-03-29T05:16:56.183Z,32.16
2023-03-29T05:17:56.256Z,32.12
2023-03-29T05:18:56.194Z,32.05
2023-03-29T05:19:56.272Z,32.13
2023-03-29T05:20:56.229Z,32.35
2023-03-29T05:21:56.237Z,32.37
2023-03-29T05:22:56.254Z,32.49
2023-03-29T05:23:56.265Z,32.92
2023-03-29T05:24:56.268Z,33.13
2023-03-29T05:25:56.292Z,33.29
2023-03-29T05:26:56.322Z,33.78
2023-03-29T05:27:56.306Z,34.12
2023-03-29T05:28:56.319Z,34.46
2023-03-29T05:29:56.349Z,34.94
2023-03-29T05:30:56.328Z,35.11
2023-03-29T05:31:56.394Z,34.75
2023-03-29T05:32:56.362Z,34.71
2023-03-29T05:33:56.342Z,34.63
2023-03-29T05:34:56.366Z,34.70
2023-03-29T05:35:56.394Z,34.79
2023-03-29T05:36:56.361Z,34.72
2023-03-29T05:37:56.417Z,34.73
2023-03-29T05:38:56.362Z,34.87
2023-03-29T05:40:06.107Z,34.99
2023-03-29T05:40:57.361Z,35.06
2023-03-29T05:41:56.360Z,35.19
2023-03-29T05:42:56.362Z,35.20
2023-03-29T05:43:56.369Z,35.14
2023-03-29T05:44:56.376Z,35.33
2023-03-29T05:45:56.482Z,35.47
2023-03-29T05:46:56.367Z,35.60
2023-03-29T05:47:56.417Z,35.67
2023-03-29T05:48:56.357Z,35.88
2023-03-29T05:49:56.354Z,35.78
2023-03-29T05:50:56.367Z,35.89
2023-03-29T05:51:56.387Z,36.08
2023-03-29T05:52:56.402Z,36.29
2023-03-29T05:53:56.446Z,36.36
2023-03-29T05:54:56.581Z,36.50
2023-03-29T05:55:56.544Z,36.55
2023-03-29T05:56:56.555Z,36.71
2023-03-29T05:57:56.576Z,36.74
2023-03-29T05:58:56.597Z,36.98
2023-03-29T05:59:56.629Z,37.08
2023-03-29T06:00:56.703Z,37.26
2023-03-29T06:01:56.740Z,37.33
2023-03-29T06:03:06.499Z,37.52
2023-03-29T06:03:57.787Z,37.55
2023-03-29T06:04:56.842Z,37.85
2023-03-29T06:05:56.670Z,37.93
2023-03-29T06:06:56.642Z,37.98
2023-03-29T06:07:56.757Z,38.12
2023-03-29T06:08:56.622Z,38.08
2023-03-29T06:09:56.617Z,38.22
2023-03-29T06:10:56.601Z,38.34
2023-03-29T06:11:57.284Z,38.41
2023-03-29T06:12:56.588Z,38.53
2023-03-29T06:13:57.582Z,38.53
2023-03-29T06:14:56.561Z,38.69
2023-03-29T06:15:56.559Z,38.77
2023-03-29T06:16:56.607Z,38.83
2023-03-29T06:17:57.570Z,38.98
2023-03-29T06:18:56.522Z,38.98
2023-03-29T06:19:56.508Z,39.05
2023-03-29T06:20:56.501Z,39.14
2023-03-29T06:21:56.490Z,39.96
2023-03-29T06:22:56.468Z,39.73
2023-03-29T06:23:56.461Z,35.63
2023-03-29T06:24:56.452Z,31.88
2023-03-29T06:25:56.459Z,32.51
2023-03-29T06:26:56.462Z,33.68
2023-03-29T06:27:56.465Z,34.77
2023-03-29T06:28:56.474Z,35.10
2023-03-29T06:29:56.471Z,35.60
2023-03-29T06:30:56.693Z,35.91
2023-03-29T06:31:56.478Z,36.16
2023-03-29T06:32:56.493Z,35.95
2023-03-29T06:33:56.493Z,36.12
2023-03-29T06:34:56.480Z,36.28
2023-03-29T06:35:57.416Z,36.13
2023-03-29T06:36:56.550Z,36.57
2023-03-29T06:37:56.721Z,36.65
2023-03-29T06:38:56.681Z,36.52
2023-03-29T06:39:56.734Z,36.40
2023-03-29T06:40:56.793Z,36.37
2023-03-29T06:41:56.831Z,36.47
2023-03-29T06:42:56.885Z,36.86
2023-03-29T06:43:56.883Z,36.82
2023-03-29T06:44:56.921Z,36.75
2023-03-29T06:45:56.973Z,36.84
2023-03-29T06:46:56.984Z,36.93
2023-03-29T06:47:57.001Z,36.97
2023-03-29T06:48:57.011Z,36.98
2023-03-29T06:49:57.023Z,37.15
2023-03-29T06:50:57.043Z,37.31
2023-03-29T06:51:57.055Z,37.45
2023-03-29T06:52:57.062Z,37.54
2023-03-29T06:53:57.068Z,37.67
2023-03-29T06:54:57.061Z,37.71
2023-03-29T06:55:57.077Z,37.78
2023-03-29T06:56:57.085Z,38.13
2023-03-29T06:57:57.068Z,38.12
2023-03-29T06:58:57.079Z,38.19
2023-03-29T06:59:57.072Z,38.24
2023-03-29T07:00:57.072Z,38.33
2023-03-29T07:01:57.211Z,38.38
2023-03-29T07:02:57.184Z,38.52
2023-03-29T07:03:57.098Z,38.63
2023-03-29T07:04:57.064Z,38.68
2023-03-29T07:05:57.879Z,38.81
2023-03-29T07:06:57.079Z,38.96
2023-03-29T07:07:57.201Z,39.01
2023-03-29T07:08:57.882Z,39.11
2023-03-29T07:09:57.152Z,39.28
2023-03-29T07:10:57.154Z,39.28
2023-03-29T07:11:57.192Z,39.36
2023-03-29T07:12:57.232Z,39.52
2023-03-29T07:13:57.268Z,39.76
2023-03-29T07:14:57.295Z,39.95
2023-03-29T07:15:57.314Z,40.05
2023-03-29T07:16:57.510Z,40.07
2023-03-29T07:17:57.437Z,39.95
2023-03-29T07:18:57.348Z,40.07
2023-03-29T07:19:57.343Z,40.18
2023-03-29T07:20:57.408Z,40.21
2023-03-29T07:21:57.349Z,40.26
2023-03-29T07:22:57.349Z,40.29
2023-03-29T07:23:57.365Z,40.28
2023-03-29T07:24:57.372Z,40.28
2023-03-29T07:25:57.388Z,40.19
2023-03-29T07:27:04.077Z,40.16
2023-03-29T07:27:58.446Z,40.14
2023-03-29T07:28:57.400Z,40.20
2023-03-29T07:29:57.462Z,40.14
2023-03-29T07:30:57.401Z,40.16
2023-03-29T07:31:57.397Z,40.20
2023-03-29T07:32:57.503Z,40.22
2023-03-29T07:33:57.495Z,40.16
2023-03-29T07:34:57.465Z,40.11
2023-03-29T07:35:57.443Z,40.15
2023-03-29T07:36:57.894Z,40.14
2023-03-29T07:37:57.374Z,40.08
2023-03-29T07:38:57.376Z,40.18
2023-03-29T07:39:57.375Z,40.18
2023-03-29T07:40:57.375Z,40.14
2023-03-29T07:41:57.380Z,40.11
2023-03-29T07:42:57.442Z,40.14
2023-03-29T07:43:57.461Z,40.13
2023-03-29T07:44:57.514Z,40.01
2023-03-29T07:45:57.598Z,39.96
2023-03-29T07:46:57.627Z,40.03
2023-03-29T07:47:57.825Z,40.00
2023-03-29T07:48:57.744Z,40.00
2023-03-29T07:49:57.792Z,39.96
2023-03-29T07:50:57.858Z,39.97
2023-03-29T07:51:57.923Z,39.88
2023-03-29T07:52:57.976Z,39.93
2023-03-29T07:53:58.053Z,39.86
2023-03-29T07:54:58.114Z,39.84
2023-03-29T07:55:58.197Z,39.86
2023-03-29T07:56:58.392Z,39.76
2023-03-29T07:57:58.309Z,39.74
2023-03-29T07:58:58.454Z,39.69
2023-03-29T07:59:58.452Z,39.64
2023-03-29T08:00:58.561Z,39.69
2023-03-29T08:01:58.585Z,39.53
2023-03-29T08:02:58.693Z,39.51
2023-03-29T08:03:58.853Z,39.41
2023-03-29T08:04:58.899Z,39.33
2023-03-29T08:05:58.872Z,39.33
2023-03-29T08:06:58.952Z,39.34
2023-03-29T08:07:59.024Z,39.33
2023-03-29T08:08:59.081Z,39.34
2023-03-29T08:09:59.146Z,39.31
2023-03-29T08:10:59.228Z,39.30
2023-03-29T08:11:59.273Z,39.35
2023-03-29T08:12:59.350Z,39.27
2023-03-29T08:13:59.430Z,39.25
2023-03-29T08:14:59.492Z,39.20
2023-03-29T08:15:59.575Z,39.28
2023-03-29T08:16:59.651Z,39.30
2023-03-29T08:17:59.938Z,39.32
2023-03-29T08:18:59.777Z,39.26
2023-03-29T08:19:59.840Z,39.28
2023-03-29T08:21:00.011Z,39.27
2023-03-29T08:21:59.995Z,39.28
2023-03-29T08:23:00.040Z,39.15
2023-03-29T08:24:00.132Z,39.08
2023-03-29T08:25:00.172Z,39.02
2023-03-29T08:26:00.182Z,38.95
2023-03-29T08:27:00.218Z,38.95
2023-03-29T08:28:00.284Z,38.98
2023-03-29T08:29:00.341Z,38.99
2023-03-29T08:30:00.394Z,38.90
2023-03-29T08:31:00.680Z,38.85
2023-03-29T08:32:00.520Z,38.93
2023-03-29T08:33:00.594Z,38.90
2023-03-29T08:34:00.584Z,38.93
2023-03-29T08:35:00.598Z,38.90
2023-03-29T08:36:00.649Z,38.80
2023-03-29T08:37:00.711Z,38.80
2023-03-29T08:38:00.639Z,38.77
2023-03-29T08:39:00.647Z,38.81
2023-03-29T08:40:00.700Z,38.79
2023-03-29T08:41:00.913Z,38.77
2023-03-29T08:42:00.753Z,38.76
2023-03-29T08:43:00.742Z,38.76
2023-03-29T08:44:00.753Z,38.69
2023-03-29T08:45:01.833Z,38.72
2023-03-29T08:46:00.855Z,38.72
2023-03-29T08:47:00.839Z,38.65
2023-03-29T08:48:00.855Z,38.55
2023-03-29T08:49:00.826Z,38.55
2023-03-29T08:50:00.846Z,38.46
2023-03-29T08:51:01.032Z,38.43
2023-03-29T08:52:01.835Z,38.47
2023-03-29T08:53:00.898Z,38.44
2023-03-29T08:54:00.905Z,38.44
2023-03-29T08:55:00.935Z,38.38
2023-03-29T08:56:00.944Z,38.33
2023-03-29T08:57:00.989Z,38.27
2023-03-29T08:58:00.997Z,38.29
2023-03-29T08:59:00.962Z,38.32
2023-03-29T09:00:01.209Z,38.32
2023-03-29T09:01:01.360Z,38.30
2023-03-29T09:02:01.066Z,38.28
2023-03-29T09:03:01.092Z,38.23
2023-03-29T09:04:01.064Z,38.24
2023-03-29T09:05:01.921Z,38.26
2023-03-29T09:06:00.988Z,38.18
2023-03-29T09:07:00.993Z,38.07
2023-03-29T09:08:01.000Z,38.06
2023-03-29T09:09:00.991Z,38.10
2023-03-29T09:10:00.986Z,38.10
2023-03-29T09:11:01.149Z,38.01
2023-03-29T09:12:01.002Z,37.97
2023-03-29T09:13:01.032Z,37.93
2023-03-29T09:14:01.046Z,37.98
2023-03-29T09:15:01.206Z,37.88
2023-03-29T09:16:01.050Z,37.90
2023-03-29T09:17:01.015Z,37.89
2023-03-29T09:18:01.469Z,37.88
2023-03-29T09:19:01.029Z,37.83
2023-03-29T09:20:01.037Z,37.83
2023-03-29T09:21:01.343Z,37.87
2023-03-29T09:22:01.046Z,37.85
2023-03-29T09:23:01.055Z,37.80
2023-03-29T09:24:01.063Z,37.84
2023-03-29T09:25:01.098Z,37.80
2023-03-29T09:26:01.100Z,37.86
2023-03-29T09:27:01.101Z,37.83
2023-03-29T09:28:01.125Z,37.71
2023-03-29T09:29:01.128Z,37.73
2023-03-29T09:30:01.175Z,37.77
2023-03-29T09:31:01.265Z,37.71
2023-03-29T09:32:01.190Z,37.72
2023-03-29T09:33:01.179Z,37.68
2023-03-29T09:34:01.135Z,37.65
2023-03-29T09:35:01.209Z,37.65
2023-03-29T09:36:01.905Z,37.69
2023-03-29T09:37:01.167Z,37.73
2023-03-29T09:38:01.196Z,37.69
2023-03-29T09:39:01.198Z,37.65
2023-03-29T09:40:02.070Z,37.58
2023-03-29T09:41:01.653Z,37.60
2023-03-29T09:42:01.401Z,37.59
2023-03-29T09:43:01.442Z,37.60
2023-03-29T09:44:01.478Z,37.59
2023-03-29T09:45:01.432Z,37.62
2023-03-29T09:46:01.531Z,37.57
2023-03-29T09:47:01.445Z,37.48
2023-03-29T09:48:01.493Z,37.53
2023-03-29T09:49:01.514Z,37.50
2023-03-29T09:50:01.539Z,37.55
2023-03-29T09:51:01.615Z,37.49
2023-03-29T09:52:01.527Z,37.51
2023-03-29T09:53:01.550Z,37.50
2023-03-29T09:54:01.529Z,37.49
2023-03-29T09:55:01.524Z,37.50
2023-03-29T09:56:01.554Z,37.40
2023-03-29T09:57:01.634Z,37.43
2023-03-29T09:58:01.583Z,37.36
2023-03-29T09:59:01.569Z,37.38
2023-03-29T10:00:02.443Z,37.38
2023-03-29T10:01:01.802Z,37.42
2023-03-29T10:02:01.594Z,37.39
2023-03-29T10:03:01.637Z,37.35
2023-03-29T10:04:01.641Z,37.36
2023-03-29T10:05:01.717Z,37.37
2023-03-29T10:06:01.659Z,37.35
2023-03-29T10:07:01.648Z,37.34
2023-03-29T10:08:01.651Z,37.36
2023-03-29T10:09:01.660Z,37.36
2023-03-29T10:10:01.667Z,37.36
2023-03-29T10:11:01.900Z,37.31
2023-03-29T10:12:01.690Z,37.30
2023-03-29T10:13:01.699Z,37.32
2023-03-29T10:14:01.701Z,37.30
2023-03-29T10:15:01.778Z,37.31
2023-03-29T10:16:01.795Z,37.25
2023-03-29T10:17:01.816Z,37.19
2023-03-29T10:18:01.810Z,37.20
2023-03-29T10:19:01.769Z,37.20
2023-03-29T10:20:03.970Z,37.21
2023-03-29T10:21:02.210Z,37.19
2023-03-29T10:22:02.000Z,37.20
2023-03-29T10:23:02.023Z,37.15
2023-03-29T10:24:02.070Z,37.14
2023-03-29T10:25:02.053Z,37.10
2023-03-29T10:26:03.006Z,37.15
2023-03-29T10:27:02.088Z,37.11
2023-03-29T10:28:02.092Z,37.10
2023-03-29T10:29:02.110Z,37.06
2023-03-29T10:30:02.119Z,37.09
2023-03-29T10:31:02.406Z,36.96
2023-03-29T10:32:02.241Z,36.95
2023-03-29T10:33:02.190Z,36.90
2023-03-29T10:34:02.162Z,36.87
2023-03-29T10:35:02.177Z,36.92
2023-03-29T10:36:02.201Z,36.92
2023-03-29T10:37:02.203Z,36.86
2023-03-29T10:38:02.200Z,36.85
2023-03-29T10:39:04.302Z,36.85
2023-03-29T10:40:02.220Z,36.86
2023-03-29T10:41:02.372Z,36.87
2023-03-29T10:42:02.297Z,36.83
2023-03-29T10:43:02.202Z,36.85
2023-03-29T10:44:02.209Z,36.81
2023-03-29T10:45:02.209Z,36.81
2023-03-29T10:46:02.226Z,36.79
2023-03-29T10:47:02.217Z,36.69
2023-03-29T10:48:02.288Z,36.73
2023-03-29T10:49:02.218Z,36.73
2023-03-29T10:50:02.226Z,36.67
2023-03-29T10:51:02.432Z,36.69
2023-03-29T10:52:02.226Z,36.64
2023-03-29T10:53:02.219Z,36.65
2023-03-29T10:54:02.222Z,36.63
2023-03-29T10:55:02.226Z,36.59
2023-03-29T10:56:02.226Z,36.66
2023-03-29T10:57:02.252Z,36.65
2023-03-29T10:58:02.237Z,36.50
2023-03-29T10:59:02.232Z,36.42
2023-03-29T11:00:02.233Z,36.44
2023-03-29T11:01:02.419Z,36.52
2023-03-29T11:02:02.404Z,36.54
2023-03-29T11:03:02.345Z,36.55
2023-03-29T11:04:02.434Z,36.52
2023-03-29T11:05:02.273Z,36.46
2023-03-29T11:06:02.259Z,36.49
2023-03-29T11:07:02.283Z,36.47
2023-03-29T11:08:02.268Z,36.41
2023-03-29T11:09:02.344Z,36.37
2023-03-29T11:10:02.341Z,36.36
2023-03-29T11:11:02.562Z,36.35
2023-03-29T11:12:15.151Z,36.42
2023-03-29T11:13:03.307Z,36.37
2023-03-29T11:14:02.308Z,36.40
2023-03-29T11:15:02.313Z,36.35
2023-03-29T11:16:02.328Z,36.22
2023-03-29T11:17:02.317Z,36.27
2023-03-29T11:18:02.339Z,36.28
2023-03-29T11:19:02.324Z,36.26
2023-03-29T11:20:04.919Z,36.25
2023-03-29T11:21:02.395Z,36.29
2023-03-29T11:22:02.335Z,36.26
2023-03-29T11:23:02.325Z,36.19
2023-03-29T11:24:02.319Z,36.18
2023-03-29T11:25:02.337Z,36.11
2023-03-29T11:26:02.329Z,36.21
2023-03-29T11:27:02.338Z,36.17
2023-03-29T11:28:02.341Z,36.19
2023-03-29T11:29:02.357Z,36.11
2023-03-29T11:30:02.423Z,36.13
2023-03-29T11:31:02.736Z,36.15
2023-03-29T11:32:02.398Z,36.15
2023-03-29T11:33:02.379Z,36.12
2023-03-29T11:34:02.366Z,36.12
2023-03-29T11:35:02.395Z,36.13
2023-03-29T11:36:02.458Z,36.14
2023-03-29T11:37:02.384Z,36.08
2023-03-29T11:38:02.378Z,36.09
2023-03-29T11:39:02.384Z,36.11
2023-03-29T11:40:02.387Z,36.12
2023-03-29T11:41:02.768Z,36.13
2023-03-29T11:42:02.416Z,36.13
2023-03-29T11:43:02.422Z,36.10
2023-03-29T11:44:02.409Z,36.13
2023-03-29T11:45:02.420Z,36.14
2023-03-29T11:46:02.427Z,36.18
2023-03-29T11:47:02.453Z,36.08
2023-03-29T11:48:02.480Z,36.13
2023-03-29T11:49:02.418Z,36.13
2023-03-29T11:50:02.507Z,36.08
2023-03-29T11:51:02.525Z,36.09
2023-03-29T11:52:02.428Z,36.12
2023-03-29T11:53:02.421Z,36.07
2023-03-29T11:54:02.424Z,36.05
2023-03-29T11:55:02.429Z,36.10
2023-03-29T11:56:02.436Z,36.06
2023-03-29T11:57:02.467Z,35.98
2023-03-29T11:58:02.438Z,35.99
2023-03-29T11:59:02.450Z,35.97
2023-03-29T12:00:02.454Z,35.98
2023-03-29T12:01:02.723Z,35.97
2023-03-29T12:02:02.477Z,35.98
2023-03-29T12:03:02.524Z,35.91
2023-03-29T12:04:02.586Z,35.88
2023-03-29T12:05:02.477Z,35.84
2023-03-29T12:06:02.514Z,35.83
2023-03-29T12:07:02.484Z,35.83
2023-03-29T12:08:02.498Z,35.80
2023-03-29T12:09:02.503Z,35.84
2023-03-29T12:10:02.516Z,35.87
2023-03-29T12:11:02.710Z,35.79
2023-03-29T12:12:02.537Z,35.75
2023-03-29T12:13:02.552Z,35.71
2023-03-29T12:14:02.549Z,35.69
2023-03-29T12:15:02.574Z,35.64
2023-03-29T12:16:02.643Z,35.63
2023-03-29T12:17:02.671Z,35.64
2023-03-29T12:18:02.626Z,35.66
2023-03-29T12:19:02.578Z,35.57
2023-03-29T12:20:02.590Z,35.62
2023-03-29T12:21:02.590Z,35.59
2023-03-29T12:22:02.588Z,35.51
2023-03-29T12:23:02.607Z,35.55
2023-03-29T12:24:02.605Z,35.51
2023-03-29T12:25:02.609Z,35.51
2023-03-29T12:26:02.615Z,35.50
2023-03-29T12:27:02.622Z,35.54
2023-03-29T12:28:02.641Z,35.54
2023-03-29T12:29:02.636Z,35.49
2023-03-29T12:30:02.736Z,35.44
2023-03-29T12:31:02.856Z,35.39
2023-03-29T12:32:02.732Z,35.44
2023-03-29T12:33:02.751Z,35.50
2023-03-29T12:34:02.704Z,35.41
2023-03-29T12:35:02.745Z,35.52
2023-03-29T12:36:02.769Z,35.49
2023-03-29T12:37:02.725Z,35.46
2023-03-29T12:38:02.741Z,35.44
2023-03-29T12:39:02.770Z,35.42
2023-03-29T12:40:02.763Z,35.40
2023-03-29T12:41:03.040Z,35.40
2023-03-29T12:42:02.770Z,35.34
2023-03-29T12:43:02.797Z,35.34
2023-03-29T12:44:02.766Z,35.30
2023-03-29T12:45:02.809Z,35.32
2023-03-29T12:46:02.956Z,35.31
2023-03-29T12:47:03.496Z,35.33
2023-03-29T12:48:02.846Z,35.31
2023-03-29T12:49:02.833Z,35.30
2023-03-29T12:50:02.855Z,35.27
2023-03-29T12:51:02.865Z,35.25
2023-03-29T12:52:02.854Z,35.24
2023-03-29T12:53:02.868Z,35.16